createdAt,value
2023-01-26T00:00:10.822Z,18.17
2023-01-26T00:02:39.550Z,17.23
2023-01-26T00:05:08.571Z,16.47
2023-01-26T00:07:37.226Z,15.83
2023-01-26T00:10:07.469Z,15.80
2023-01-26T00:12:35.747Z,15.60
2023-01-26T00:15:04.206Z,14.40
2023-01-26T00:17:32.681Z,16.20
2023-01-26T00:20:00.963Z,15.23
2023-01-26T00:22:29.527Z,13.87
2023-01-26T00:24:57.996Z,15.27
2023-01-26T00:27:27.963Z,14.87
2023-01-26T00:29:56.304Z,14.03
2023-01-26T00:32:24.771Z,15.70
2023-01-26T00:34:53.259Z,15.00
2023-01-26T00:37:21.554Z,14.73
2023-01-26T00:39:52.422Z,15.77
2023-01-26T00:42:21.898Z,15.93
2023-01-26T00:44:52.038Z,16.40
2023-01-26T00:47:20.488Z,16.07
2023-01-26T00:49:49.173Z,16.03
2023-01-26T00:52:17.445Z,15.63
2023-01-26T00:54:46.069Z,15.37
2023-01-26T00:57:16.349Z,15.83
2023-01-26T00:59:44.839Z,16.63
2023-01-26T01:02:15.074Z,15.90
2023-01-26T01:04:43.532Z,15.03
2023-01-26T01:07:12.136Z,15.70
2023-01-26T01:09:40.413Z,14.07
2023-01-26T01:12:09.136Z,14.37
2023-01-26T01:14:37.450Z,14.50
2023-01-26T01:17:05.885Z,13.07
2023-01-26T01:19:35.762Z,12.73
2023-01-26T01:22:04.420Z,12.67
2023-01-26T01:24:34.443Z,12.63
2023-01-26T01:27:03.042Z,12.73
2023-01-26T01:29:31.553Z,14.23
2023-01-26T01:32:00.200Z,13.00
2023-01-26T01:34:29.716Z,13.97
2023-01-26T01:36:59.554Z,12.93
2023-01-26T01:39:27.832Z,11.90
2023-01-26T01:41:56.377Z,12.13
2023-01-26T01:44:26.601Z,12.73
2023-01-26T01:46:57.373Z,11.27
2023-01-26T01:49:28.520Z,11.50
2023-01-26T01:52:01.260Z,11.30
2023-01-26T01:54:33.822Z,11.20
2023-01-26T01:57:04.478Z,11.37
2023-01-26T01:59:33.950Z,11.60
2023-01-26T02:02:02.552Z,13.47
2023-01-26T02:04:31.142Z,12.07
2023-01-26T02:07:05.892Z,12.63
2023-01-26T02:09:54.568Z,12.43
2023-01-26T02:12:32.326Z,11.00
2023-01-26T02:15:01.962Z,11.83
2023-01-26T02:17:30.459Z,13.53
2023-01-26T02:20:05.579Z,12.10
2023-01-26T02:22:42.551Z,11.83
2023-01-26T02:25:18.708Z,11.50
2023-01-26T02:27:49.226Z,11.90
2023-01-26T02:30:18.035Z,11.67
2023-01-26T02:32:47.143Z,10.97
2023-01-26T02:35:16.203Z,10.83
2023-01-26T02:37:44.674Z,11.77
2023-01-26T02:40:20.449Z,11.93
2023-01-26T02:42:54.810Z,11.83
2023-01-26T02:45:23.661Z,10.70
2023-01-26T02:47:52.227Z,11.17
2023-01-26T02:50:20.172Z,11.03
2023-01-26T02:52:48.595Z,12.83
2023-01-26T02:55:26.259Z,11.10
2023-01-26T02:57:57.969Z,12.70
2023-01-26T03:00:28.474Z,12.50
2023-01-26T03:03:00.367Z,10.20
2023-01-26T03:05:29.564Z,11.23
2023-01-26T03:07:58.412Z,11.10
2023-01-26T03:10:32.560Z,10.60
2023-01-26T03:13:02.585Z,10.57
2023-01-26T03:15:43.765Z,9.70
2023-01-26T03:18:34.257Z,9.17
2023-01-26T03:21:22.096Z,10.80
2023-01-26T03:24:08.029Z,9.33
2023-01-26T03:26:54.654Z,10.53
2023-01-26T03:29:26.705Z,11.10
2023-01-26T03:31:59.432Z,10.07
2023-01-26T03:34:29.586Z,10.73
2023-01-26T03:36:59.241Z,11.13
2023-01-26T03:39:50.363Z,10.40
2023-01-26T03:42:37.021Z,10.10
2023-01-26T03:45:25.836Z,10.43
2023-01-26T03:48:11.784Z,9.87
2023-01-26T03:50:57.793Z,11.23
2023-01-26T03:53:43.745Z,11.27
2023-01-26T03:56:23.267Z,10.87
2023-01-26T03:58:54.913Z,11.43
2023-01-26T04:01:28.165Z,11.10
2023-01-26T04:04:18.146Z,10.87
2023-01-26T04:07:07.452Z,10.00
2023-01-26T04:09:37.754Z,11.50
2023-01-26T04:12:06.927Z,10.43
2023-01-26T04:14:57.926Z,11.33
2023-01-26T04:17:47.048Z,10.30
2023-01-26T04:20:33.518Z,11.00
2023-01-26T04:23:02.406Z,10.87
2023-01-26T04:25:30.785Z,11.97
2023-01-26T04:27:59.672Z,11.07
2023-01-26T04:30:28.125Z,11.17
2023-01-26T04:32:59.398Z,10.57
2023-01-26T04:35:27.917Z,11.00
2023-01-26T04:37:56.490Z,10.50
2023-01-26T04:40:25.394Z,10.23
2023-01-26T04:42:53.865Z,11.30
2023-01-26T04:45:22.636Z,10.57
2023-01-26T04:47:51.981Z,11.40
2023-01-26T04:50:21.928Z,9.77
2023-01-26T04:52:50.561Z,11.73
2023-01-26T04:55:19.315Z,11.50
2023-01-26T04:57:48.420Z,10.83
2023-01-26T05:00:17.315Z,11.83
2023-01-26T05:02:45.945Z,11.57
2023-01-26T05:05:15.743Z,10.37
2023-01-26T05:07:45.381Z,12.50
2023-01-26T05:10:15.973Z,11.20
2023-01-26T05:13:05.853Z,11.83
2023-01-26T05:15:42.430Z,12.33
2023-01-26T05:18:19.826Z,11.87
2023-01-26T05:21:04.596Z,12.87
2023-01-26T05:23:47.772Z,12.97
2023-01-26T05:26:26.464Z,13.53
2023-01-26T05:29:01.458Z,12.33
2023-01-26T05:31:30.319Z,14.63
2023-01-26T05:33:58.795Z,13.30
2023-01-26T05:36:27.124Z,12.70
2023-01-26T05:38:56.985Z,11.40
2023-01-26T05:41:27.650Z,11.53
2023-01-26T05:44:18.866Z,12.60
2023-01-26T05:46:51.916Z,14.10
2023-01-26T05:49:20.279Z,13.30
2023-01-26T05:51:48.892Z,14.10
2023-01-26T05:54:18.894Z,11.87
2023-01-26T05:56:47.824Z,11.67
2023-01-26T05:59:16.647Z,11.97
2023-01-26T06:01:45.186Z,13.53
2023-01-26T06:04:13.967Z,12.97
2023-01-26T06:07:00.321Z,13.80
2023-01-26T06:09:34.355Z,12.40
2023-01-26T06:12:16.633Z,12.23
2023-01-26T06:14:54.068Z,12.80
2023-01-26T06:17:22.675Z,10.27
2023-01-26T06:19:57.714Z,12.40
2023-01-26T06:22:26.414Z,13.07
2023-01-26T06:24:56.293Z,11.40
2023-01-26T06:27:24.757Z,12.37
2023-01-26T06:29:54.283Z,13.10
2023-01-26T06:32:23.844Z,12.83
2023-01-26T06:34:55.516Z,12.67
2023-01-26T06:37:25.552Z,13.00
2023-01-26T06:39:56.134Z,12.83
2023-01-26T06:42:24.554Z,13.27
2023-01-26T06:44:53.053Z,11.90
2023-01-26T06:47:21.462Z,12.53
2023-01-26T06:49:50.745Z,13.97
2023-01-26T06:52:29.332Z,14.00
2023-01-26T06:55:05.077Z,13.37
2023-01-26T06:57:55.117Z,14.07
2023-01-26T07:00:42.003Z,12.43
2023-01-26T07:03:16.145Z,14.83
2023-01-26T07:05:44.546Z,14.00
2023-01-26T07:08:12.911Z,12.90
2023-01-26T07:10:42.781Z,13.40
2023-01-26T07:13:11.159Z,13.27
2023-01-26T07:15:39.625Z,14.50
2023-01-26T07:18:09.321Z,14.40
2023-01-26T07:20:38.536Z,14.60
2023-01-26T07:23:06.932Z,12.87
2023-01-26T07:25:35.353Z,14.40
2023-01-26T07:28:05.453Z,16.67
2023-01-26T07:30:33.815Z,16.50
2023-01-26T07:33:02.288Z,14.70
2023-01-26T07:35:30.877Z,14.83
2023-01-26T07:37:59.288Z,14.20
2023-01-26T07:40:28.648Z,21.20
2023-01-26T07:42:57.439Z,16.23
2023-01-26T07:45:56.679Z,31.60
2023-01-26T07:48:26.075Z,34.00
2023-01-26T07:50:54.664Z,15.83
2023-01-26T07:53:23.231Z,14.23
2023-01-26T07:55:54.045Z,13.07
2023-01-26T07:58:22.531Z,13.60
2023-01-26T08:00:50.811Z,14.10
2023-01-26T08:03:20.649Z,14.63
2023-01-26T08:05:49.044Z,13.83
2023-01-26T08:08:17.910Z,14.53
2023-01-26T08:10:46.425Z,15.10
2023-01-26T08:13:19.000Z,14.93
2023-01-26T08:15:52.534Z,14.97
2023-01-26T08:18:22.357Z,12.93
2023-01-26T08:20:52.189Z,15.87
2023-01-26T08:23:21.037Z,14.37
2023-01-26T08:25:49.593Z,16.67
2023-01-26T08:28:19.399Z,19.80
2023-01-26T08:30:50.004Z,18.03
2023-01-26T08:33:18.530Z,39.13
2023-01-26T08:35:48.305Z,22.70
2023-01-26T08:38:17.564Z,17.77
2023-01-26T08:40:45.952Z,13.93
2023-01-26T08:43:14.266Z,15.83
2023-01-26T08:45:42.607Z,14.83
2023-01-26T08:48:11.159Z,16.67
2023-01-26T08:50:39.636Z,15.90
2023-01-26T08:53:09.433Z,16.73
2023-01-26T08:55:38.188Z,40.53
2023-01-26T08:58:06.621Z,24.63
2023-01-26T09:00:34.935Z,30.67
2023-01-26T09:03:04.634Z,41.03
2023-01-26T09:05:34.782Z,24.97
2023-01-26T09:08:03.516Z,21.53
2023-01-26T09:10:33.677Z,20.90
2023-01-26T09:13:02.782Z,17.87
2023-01-26T09:15:31.345Z,15.93
2023-01-26T09:18:01.076Z,18.97
2023-01-26T09:20:29.952Z,18.83
2023-01-26T09:23:01.579Z,18.40
2023-01-26T09:25:37.111Z,18.30
2023-01-26T09:28:06.377Z,30.87
2023-01-26T09:30:35.048Z,26.53
2023-01-26T09:33:05.777Z,20.70
2023-01-26T09:35:34.479Z,25.37
2023-01-26T09:38:03.099Z,20.70
2023-01-26T09:40:40.300Z,22.80
2023-01-26T09:43:18.899Z,19.03
2023-01-26T09:45:55.093Z,22.03
2023-01-26T09:48:32.779Z,20.20
2023-01-26T09:51:05.123Z,20.10
2023-01-26T09:53:42.699Z,21.27
2023-01-26T09:56:17.150Z,22.47
2023-01-26T09:58:46.638Z,20.67
2023-01-26T10:01:19.981Z,19.30
2023-01-26T10:03:50.352Z,22.67
2023-01-26T10:06:22.855Z,22.57
2023-01-26T10:09:13.792Z,19.23
2023-01-26T10:11:45.373Z,20.60
2023-01-26T10:14:17.523Z,20.03
2023-01-26T10:16:48.962Z,20.83
2023-01-26T10:19:22.039Z,18.40
2023-01-26T10:21:52.240Z,20.10
2023-01-26T10:24:24.173Z,18.53
2023-01-26T10:26:55.234Z,19.53
2023-01-26T10:29:24.098Z,19.30
2023-01-26T10:31:52.643Z,19.53
2023-01-26T10:34:26.407Z,20.23
2023-01-26T10:37:01.553Z,18.77
2023-01-26T10:39:29.909Z,17.80
2023-01-26T10:42:01.281Z,18.43
2023-01-26T10:44:34.637Z,18.00
2023-01-26T10:47:08.445Z,19.87
2023-01-26T10:49:38.660Z,20.03
2023-01-26T10:52:09.303Z,16.33
2023-01-26T10:54:39.583Z,17.47
2023-01-26T10:57:18.034Z,19.13
2023-01-26T10:59:53.333Z,18.77
2023-01-26T11:02:27.659Z,19.27
2023-01-26T11:05:16.765Z,19.50
2023-01-26T11:07:46.352Z,19.03
2023-01-26T11:10:30.429Z,20.13
2023-01-26T11:13:16.577Z,18.27
2023-01-26T11:15:48.579Z,21.83
2023-01-26T11:18:26.834Z,23.03
2023-01-26T11:21:01.348Z,18.73
2023-01-26T11:23:41.412Z,19.00
2023-01-26T11:26:49.583Z,18.70
2023-01-26T11:29:43.251Z,25.73
2023-01-26T11:32:18.836Z,25.33
2023-01-26T11:34:52.947Z,21.60
2023-01-26T11:37:37.716Z,23.30
2023-01-26T11:40:32.056Z,15.73
2023-01-26T11:43:15.091Z,14.37
2023-01-26T11:46:00.613Z,14.63
2023-01-26T11:48:35.392Z,13.87
2023-01-26T11:51:09.153Z,13.70
2023-01-26T11:53:53.955Z,13.20
2023-01-26T11:56:32.037Z,14.10
2023-01-26T11:59:03.730Z,14.17
2023-01-26T12:01:38.092Z,14.13
2023-01-26T12:04:06.540Z,14.60
2023-01-26T12:06:39.116Z,12.87
2023-01-26T12:09:12.805Z,12.70
2023-01-26T12:11:44.162Z,12.77
2023-01-26T12:14:20.992Z,13.10
2023-01-26T12:17:15.633Z,12.90
2023-01-26T12:19:49.532Z,13.83
2023-01-26T12:22:23.109Z,12.13
2023-01-26T12:25:18.579Z,12.13
2023-01-26T12:27:47.353Z,12.10
2023-01-26T12:30:26.243Z,12.17
2023-01-26T12:32:56.090Z,12.53
2023-01-26T12:35:33.724Z,12.80
2023-01-26T12:38:17.308Z,12.87
2023-01-26T12:41:00.662Z,12.73
2023-01-26T12:43:41.034Z,11.43
2023-01-26T12:46:09.883Z,12.13
2023-01-26T12:48:43.331Z,11.23
2023-01-26T12:51:13.663Z,11.07
2023-01-26T12:53:47.823Z,10.97
2023-01-26T12:56:21.512Z,10.80
2023-01-26T12:58:51.596Z,11.00
2023-01-26T13:01:21.376Z,12.13
2023-01-26T13:03:55.799Z,12.03
2023-01-26T13:06:25.656Z,11.83
2023-01-26T13:09:04.601Z,13.37
2023-01-26T13:11:51.835Z,12.37
2023-01-26T13:14:40.157Z,11.93
2023-01-26T13:17:47.946Z,12.83
2023-01-26T13:20:43.317Z,12.03
2023-01-26T13:23:41.316Z,13.57
2023-01-26T13:26:21.153Z,13.13
2023-01-26T13:28:50.965Z,14.33
2023-01-26T13:31:35.374Z,13.93
2023-01-26T13:34:09.094Z,12.07
2023-01-26T13:36:41.365Z,12.13
2023-01-26T13:39:15.229Z,12.53
2023-01-26T13:41:47.865Z,13.03
2023-01-26T13:44:18.812Z,12.33
2023-01-26T13:46:52.328Z,14.00
2023-01-26T13:49:28.908Z,13.40
2023-01-26T13:51:58.668Z,14.77
2023-01-26T13:54:28.397Z,15.87
2023-01-26T13:57:04.981Z,15.57
2023-01-26T13:59:34.299Z,14.97
2023-01-26T14:02:02.874Z,13.70
2023-01-26T14:04:32.838Z,15.43
2023-01-26T14:07:04.957Z,14.53
2023-01-26T14:09:35.201Z,15.33
2023-01-26T14:12:05.760Z,13.93
2023-01-26T14:14:36.411Z,15.23
2023-01-26T14:17:08.716Z,14.57
2023-01-26T14:19:42.379Z,16.17
2023-01-26T14:22:15.601Z,15.50
2023-01-26T14:24:44.163Z,14.33
2023-01-26T14:27:35.320Z,17.43
2023-01-26T14:30:09.304Z,22.13
2023-01-26T14:32:38.085Z,28.43
2023-01-26T14:35:22.752Z,30.00
2023-01-26T14:38:06.685Z,19.47
2023-01-26T14:40:36.473Z,17.17
2023-01-26T14:43:05.406Z,16.97
2023-01-26T14:45:34.248Z,15.77
2023-01-26T14:48:06.798Z,17.60
2023-01-26T14:50:35.897Z,18.77
2023-01-26T14:53:07.009Z,24.07
2023-01-26T14:55:36.693Z,15.87
2023-01-26T14:58:15.485Z,16.23
2023-01-26T15:00:43.987Z,42.40
2023-01-26T15:03:16.332Z,20.17
2023-01-26T15:05:45.179Z,23.70
2023-01-26T15:08:23.753Z,30.27
2023-01-26T15:10:56.010Z,19.53
2023-01-26T15:13:26.100Z,18.20
2023-01-26T15:16:05.057Z,28.40
2023-01-26T15:18:34.019Z,21.73
2023-01-26T15:21:12.534Z,19.93
2023-01-26T15:23:44.835Z,20.00
2023-01-26T15:26:16.378Z,20.93
2023-01-26T15:28:44.799Z,16.23
2023-01-26T15:31:22.363Z,19.53
2023-01-26T15:33:52.769Z,20.23
2023-01-26T15:36:26.799Z,15.27
2023-01-26T15:39:01.322Z,16.83
2023-01-26T15:41:30.555Z,17.13
2023-01-26T15:43:59.618Z,17.70
2023-01-26T15:46:28.191Z,15.70
2023-01-26T15:48:56.662Z,19.33
2023-01-26T15:51:25.090Z,17.63
2023-01-26T15:53:53.364Z,17.90
2023-01-26T15:56:23.412Z,15.83
2023-01-26T15:58:52.019Z,14.27
2023-01-26T16:01:22.189Z,16.80
2023-01-26T16:03:51.192Z,16.33
2023-01-26T16:06:27.639Z,18.97
2023-01-26T16:08:57.015Z,23.63
2023-01-26T16:11:29.862Z,19.73
2023-01-26T16:14:03.546Z,16.83
2023-01-26T16:16:32.875Z,15.53
2023-01-26T16:19:01.252Z,15.83
2023-01-26T16:21:33.209Z,16.47
2023-01-26T16:24:02.006Z,17.23
2023-01-26T16:26:32.622Z,13.93
2023-01-26T16:29:00.956Z,16.43
2023-01-26T16:31:31.764Z,13.87
2023-01-26T16:34:01.067Z,13.90
2023-01-26T16:36:30.156Z,13.50
2023-01-26T16:38:59.332Z,11.10
2023-01-26T16:41:30.005Z,9.57
2023-01-26T16:44:01.011Z,7.70
2023-01-26T16:46:31.252Z,8.07
2023-01-26T16:48:59.766Z,9.37
2023-01-26T16:51:29.927Z,9.53
2023-01-26T16:53:58.445Z,10.07
2023-01-26T16:56:28.463Z,10.63
2023-01-26T16:58:56.717Z,11.77
2023-01-26T17:01:28.264Z,12.80
2023-01-26T17:03:57.596Z,11.70
2023-01-26T17:06:26.261Z,11.60
2023-01-26T17:08:54.791Z,14.80
2023-01-26T17:11:26.093Z,12.50
2023-01-26T17:13:57.164Z,11.63
2023-01-26T17:16:31.648Z,10.87
2023-01-26T17:19:00.226Z,12.53
2023-01-26T17:21:28.717Z,10.77
2023-01-26T17:23:58.941Z,10.63
2023-01-26T17:26:27.405Z,11.33
2023-01-26T17:28:56.724Z,10.03
2023-01-26T17:31:26.745Z,9.97
2023-01-26T17:33:56.285Z,10.40
2023-01-26T17:36:24.917Z,11.03
2023-01-26T17:38:53.668Z,9.73
2023-01-26T17:41:22.016Z,10.03
2023-01-26T17:43:51.385Z,9.80
2023-01-26T17:46:21.082Z,9.77
2023-01-26T17:48:51.554Z,10.23
2023-01-26T17:51:21.430Z,10.17
2023-01-26T17:53:50.893Z,11.53
2023-01-26T17:56:20.736Z,11.50
2023-01-26T17:58:50.140Z,10.23
2023-01-26T18:01:20.567Z,11.00
2023-01-26T18:03:50.889Z,11.00
2023-01-26T18:06:19.325Z,9.63
2023-01-26T18:08:48.448Z,10.93
2023-01-26T18:11:18.198Z,10.73
2023-01-26T18:13:46.934Z,11.00
2023-01-26T18:16:18.658Z,10.33
2023-01-26T18:18:47.941Z,11.07
2023-01-26T18:21:19.512Z,10.73
2023-01-26T18:23:48.448Z,11.37
2023-01-26T18:26:18.252Z,10.73
2023-01-26T18:28:46.823Z,12.70
2023-01-26T18:31:17.456Z,10.27
2023-01-26T18:33:46.752Z,10.17
2023-01-26T18:36:18.615Z,9.40
2023-01-26T18:38:50.865Z,8.93
2023-01-26T18:41:19.311Z,9.07
2023-01-26T18:43:48.675Z,10.77
2023-01-26T18:46:17.123Z,8.53
2023-01-26T18:48:45.500Z,7.93
2023-01-26T18:51:14.366Z,8.13
2023-01-26T18:53:44.138Z,7.97
2023-01-26T18:56:16.800Z,8.20
2023-01-26T18:58:45.321Z,8.07
2023-01-26T19:01:15.772Z,7.37
2023-01-26T19:03:47.646Z,8.17
2023-01-26T19:06:18.354Z,6.67
2023-01-26T19:08:49.023Z,7.00
2023-01-26T19:11:17.322Z,7.50
2023-01-26T19:13:48.830Z,7.40
2023-01-26T19:16:17.546Z,6.43
2023-01-26T19:18:45.852Z,7.30
2023-01-26T19:21:14.127Z,6.43
2023-01-26T19:23:42.784Z,6.73
2023-01-26T19:26:13.635Z,6.10
2023-01-26T19:28:42.236Z,6.97
2023-01-26T19:31:11.259Z,6.40
2023-01-26T19:33:40.104Z,7.50
2023-01-26T19:36:09.295Z,7.67
2023-01-26T19:38:39.706Z,6.87
2023-01-26T19:41:08.350Z,7.73
2023-01-26T19:43:38.227Z,7.80
2023-01-26T19:46:08.474Z,8.27
2023-01-26T19:48:37.036Z,8.20
2023-01-26T19:51:08.198Z,7.60
2023-01-26T19:53:38.473Z,7.37
2023-01-26T19:56:08.024Z,8.07
2023-01-26T19:58:37.888Z,7.10
2023-01-26T20:01:25.992Z,7.07
2023-01-26T20:04:15.102Z,7.70
2023-01-26T20:06:43.574Z,6.90
2023-01-26T20:09:13.106Z,6.83
2023-01-26T20:11:41.699Z,7.20
2023-01-26T20:14:12.326Z,6.77
2023-01-26T20:16:40.742Z,7.33
2023-01-26T20:19:09.152Z,6.47
2023-01-26T20:21:38.826Z,7.17
2023-01-26T20:24:08.131Z,7.90
2023-01-26T20:26:36.872Z,6.90
2023-01-26T20:29:05.730Z,6.63
2023-01-26T20:31:35.742Z,7.00
2023-01-26T20:34:04.304Z,7.67
2023-01-26T20:36:34.087Z,6.60
2023-01-26T20:39:02.754Z,7.30
2023-01-26T20:41:32.441Z,7.77
2023-01-26T20:44:02.739Z,7.30
2023-01-26T20:46:32.708Z,7.27
2023-01-26T20:49:02.853Z,7.97
2023-01-26T20:51:34.009Z,7.60
2023-01-26T20:54:03.815Z,7.33
2023-01-26T20:56:32.517Z,6.23
2023-01-26T20:59:01.380Z,7.03
2023-01-26T21:01:30.336Z,7.40
2023-01-26T21:03:58.710Z,6.60
2023-01-26T21:06:28.577Z,6.10
2023-01-26T21:08:58.049Z,6.37
2023-01-26T21:11:28.715Z,7.17
2023-01-26T21:13:57.537Z,6.63
2023-01-26T21:16:26.274Z,6.90
2023-01-26T21:18:54.729Z,6.20
2023-01-26T21:21:24.183Z,5.93
2023-01-26T21:23:54.057Z,5.77
2023-01-26T21:26:24.616Z,5.67
2023-01-26T21:28:54.413Z,6.13
2023-01-26T21:31:24.988Z,6.57
2023-01-26T21:33:53.975Z,6.37
2023-01-26T21:36:23.922Z,6.37
2023-01-26T21:38:54.543Z,5.90
2023-01-26T21:41:42.010Z,6.40
2023-01-26T21:44:12.459Z,6.17
2023-01-26T21:46:41.225Z,6.40
2023-01-26T21:49:10.798Z,6.43
2023-01-26T21:51:57.813Z,6.77
2023-01-26T21:54:29.640Z,6.90
2023-01-26T21:56:58.133Z,7.00
2023-01-26T21:59:25.633Z,6.90
2023-01-26T22:01:56.929Z,6.63
2023-01-26T22:04:27.997Z,7.17
2023-01-26T22:06:56.914Z,6.73
2023-01-26T22:09:25.490Z,6.13
2023-01-26T22:11:55.283Z,5.73
2023-01-26T22:14:26.062Z,6.57
2023-01-26T22:16:54.391Z,5.63
2023-01-26T22:19:22.659Z,6.10
2023-01-26T22:21:50.958Z,6.23
2023-01-26T22:24:19.363Z,5.70
2023-01-26T22:26:48.403Z,5.10
2023-01-26T22:29:18.075Z,4.97
2023-01-26T22:31:46.746Z,4.70
2023-01-26T22:34:15.272Z,3.73
2023-01-26T22:36:43.776Z,3.83
2023-01-26T22:39:12.639Z,3.00
2023-01-26T22:41:41.051Z,2.70
2023-01-26T22:44:09.442Z,2.40
2023-01-26T22:46:39.675Z,2.27
2023-01-26T22:49:08.154Z,2.77
2023-01-26T22:51:37.547Z,2.50
2023-01-26T22:54:06.592Z,2.90
2023-01-26T22:56:35.032Z,2.33
2023-01-26T22:59:04.324Z,2.00
2023-01-26T23:01:33.832Z,2.67
2023-01-26T23:04:03.735Z,1.87
2023-01-26T23:06:32.154Z,2.57
2023-01-26T23:09:01.212Z,2.77
2023-01-26T23:11:30.697Z,3.03
2023-01-26T23:14:00.159Z,3.07
2023-01-26T23:16:29.085Z,3.93
2023-01-26T23:18:59.277Z,3.83
2023-01-26T23:21:30.008Z,3.90
2023-01-26T23:23:58.886Z,3.80
2023-01-26T23:26:27.683Z,3.73
2023-01-26T23:28:56.210Z,3.57
2023-01-26T23:31:24.833Z,3.77
2023-01-26T23:33:53.321Z,4.03
2023-01-26T23:36:21.957Z,4.33
2023-01-26T23:38:52.690Z,4.20
2023-01-26T23:41:21.494Z,4.33
2023-01-26T23:43:49.949Z,4.23
2023-01-26T23:46:18.354Z,4.43
2023-01-26T23:48:47.049Z,4.80
2023-01-26T23:51:15.415Z,3.90
2023-01-26T23:53:43.922Z,3.97
2023-01-26T23:56:16.095Z,3.17
2023-01-26T23:58:45.882Z,2.70
